Time;durP1;ratioP1;P1;durP2;ratioP2;P2;SDS_P1;SDS_P2;PMS_P1;PMS_P2;Temp;Humidity;BMP_temperature;BMP_pressure;BME280_temperature;BME280_humidity;BME280_pressure;Samples;Min_cycle;Max_cycle;Signal;HPM_P1;HPM_P2
2022/01/26 00:06:16;;;;;;;;;48.00;39.00;;;;;3.58;70.54;103318.22;5133383;27;49923;-70
2022/01/26 00:08:41;;;;;;;;;46.25;41.25;;;;;3.26;70.09;103265.97;5133454;27;49902;-70
2022/01/26 00:11:07;;;;;;;;;57.25;42.50;;;;;3.44;70.09;103306.59;5132874;27;50678;-69
2022/01/26 00:13:32;;;;;;;;;41.75;36.75;;;;;2.98;70.89;103224.56;5133022;27;49794;-69
2022/01/26 00:16:01;;;;;;;;;55.50;38.50;;;;;3.35;70.42;103290.19;5126728;27;49784;-69
2022/01/26 00:18:30;;;;;;;;;51.50;41.25;;;;;3.45;69.88;103311.91;5133299;27;49658;-70
2022/01/26 00:21:03;;;;;;;;;49.00;39.50;;;;;3.40;70.46;103301.91;5132950;27;49961;-69
2022/01/26 00:23:50;;;;;;;;;54.25;40.75;;;;;3.47;71.12;103314.63;5127230;27;49922;-70
2022/01/26 00:26:29;;;;;;;;;55.00;43.25;;;;;3.39;70.53;103301.00;5114311;27;49734;-69
2022/01/26 00:43:13;;;;;;;;;35.50;31.75;;;;;3.45;70.82;103318.78;5132504;27;50456;-69
2022/01/26 00:45:39;;;;;;;;;44.75;40.50;;;;;3.29;70.86;103292.25;5132513;27;49970;-68
2022/01/26 00:48:08;;;;;;;;;41.25;39.25;;;;;3.38;71.07;103327.75;5132508;27;49735;-69
2022/01/26 00:50:35;;;;;;;;;41.25;38.25;;;;;3.36;71.46;103321.47;5132800;27;49715;-69
2022/01/26 00:53:02;;;;;;;;;39.50;34.00;;;;;3.07;71.11;103279.88;5132398;27;50617;-69
2022/01/26 00:55:28;;;;;;;;;48.00;38.25;;;;;3.29;70.54;103320.81;5132321;27;49780;-70
2022/01/26 00:57:53;;;;;;;;;29.75;22.00;;;;;3.41;70.80;103332.28;5132435;27;49900;-70
2022/01/26 01:00:25;;;;;;;;;41.00;32.50;;;;;3.35;70.77;103314.47;5132432;27;49796;-69
2022/01/26 01:02:52;;;;;;;;;51.75;41.00;;;;;3.35;70.03;103332.63;5132286;27;49798;-69
2022/01/26 01:05:26;;;;;;;;;38.50;33.50;;;;;3.35;71.27;103335.22;5125783;27;49804;-69
2022/01/26 01:07:56;;;;;;;;;37.00;30.75;;;;;3.16;70.73;103277.22;5126557;27;49809;-69
2022/01/26 01:10:24;;;;;;;;;36.75;35.25;;;;;3.24;69.90;103309.06;5132501;27;49856;-70
2022/01/26 01:12:54;;;;;;;;;41.25;39.00;;;;;3.34;70.25;103327.31;5132123;27;50831;-69
2022/01/26 01:15:20;;;;;;;;;43.00;37.75;;;;;3.31;70.83;103308.88;5113207;27;49858;-69
2022/01/26 01:17:50;;;;;;;;;41.50;35.00;;;;;2.63;70.33;103195.44;5132092;27;49641;-69
2022/01/26 01:24:04;;;;;;;;;32.50;29.75;;;;;3.17;69.26;103289.41;5131898;27;49846;-69
2022/01/26 01:31:28;;;;;;;;;44.50;42.00;;;;;3.12;69.63;103302.00;5132155;27;49776;-67
2022/01/26 01:33:54;;;;;;;;;54.75;41.75;;;;;3.04;69.42;103289.09;5131664;27;50739;-67
2022/01/26 01:36:21;;;;;;;;;48.50;43.00;;;;;2.95;69.32;103283.06;5131935;27;50023;-68
2022/01/26 01:38:47;;;;;;;;;42.50;40.75;;;;;3.19;69.45;103328.53;5131984;27;49859;-68
2022/01/26 01:41:12;;;;;;;;;55.00;38.25;;;;;3.13;69.62;103315.88;5131979;27;50028;-67
2022/01/26 01:43:38;;;;;;;;;46.50;40.75;;;;;3.03;69.19;103298.56;5131313;27;49944;-68
2022/01/26 01:46:05;;;;;;;;;45.00;37.25;;;;;3.04;69.83;103313.34;5131708;27;49733;-68
2022/01/26 01:48:32;;;;;;;;;45.25;39.00;;;;;2.98;69.05;103337.81;5131849;27;49766;-68
2022/01/26 01:51:02;;;;;;;;;45.75;40.75;;;;;2.12;69.23;103173.38;5131861;27;49866;-68
2022/01/26 01:53:42;;;;;;;;;49.50;41.50;;;;;2.43;69.54;103229.91;5131592;27;50683;-68
2022/01/26 01:56:10;;;;;;;;;43.25;41.75;;;;;2.42;70.07;103241.03;5124541;27;50373;-67
2022/01/26 01:58:36;;;;;;;;;48.25;39.25;;;;;2.93;70.25;103327.03;5131286;27;49745;-68
2022/01/26 02:01:03;;;;;;;;;45.50;38.00;;;;;3.13;69.75;103345.34;5094211;27;50028;-68
2022/01/26 02:03:28;;;;;;;;;42.75;38.50;;;;;2.96;69.89;103313.41;5111440;27;49853;-68
2022/01/26 02:05:54;;;;;;;;;37.00;33.25;;;;;3.03;70.00;103334.88;5111737;27;49710;-68
2022/01/26 02:08:19;;;;;;;;;34.25;32.75;;;;;2.94;69.42;103309.78;5111803;27;49577;-67
2022/01/26 02:10:45;;;;;;;;;43.75;39.50;;;;;3.10;69.48;103332.09;5110765;27;50013;-70
2022/01/26 02:13:22;;;;;;;;;48.75;35.50;;;;;2.48;69.64;103210.47;5095580;27;50974;-68
2022/01/26 02:16:13;;;;;;;;;41.25;36.50;;;;;3.21;69.69;103322.69;5116453;27;49987;-68
2022/01/26 02:54:16;;;;;;;;;28.25;21.50;;;;;3.63;69.37;103323.03;5131175;27;49757;-67
2022/01/26 03:04:22;;;;;;;;;48.25;36.75;;;;;3.38;69.65;103293.97;5134421;27;49801;-68
2022/01/26 03:09:17;;;;;;;;;34.50;32.75;;;;;3.56;68.63;103298.97;5133965;27;49663;-68
2022/01/26 03:11:45;;;;;;;;;48.00;38.00;;;;;3.54;69.37;103283.25;5096093;27;49879;-68
2022/01/26 03:16:52;;;;;;;;;43.50;41.00;;;;;3.76;70.11;103308.53;5133909;27;50513;-67
2022/01/26 03:28:12;;;;;;;;;39.00;30.75;;;;;3.76;69.21;103288.66;5120999;27;49765;-67
2022/01/26 03:30:19;;;;;;;;;42.75;36.50;;;;;3.83;68.35;103291.03;5133871;27;49793;-67
2022/01/26 03:35:41;;;;;;;;;52.25;41.25;;;;;3.69;69.10;103253.47;5134089;27;49996;-68
2022/01/26 03:38:07;;;;;;;;;42.00;39.00;;;;;3.83;69.11;103274.53;5133733;27;50950;-69
2022/01/26 03:40:36;;;;;;;;;48.00;36.25;;;;;3.94;67.98;103297.19;5133623;27;49768;-67
2022/01/26 03:43:02;;;;;;;;;45.50;37.75;;;;;3.71;68.80;103279.56;5133513;27;49678;-68
2022/01/26 03:45:27;;;;;;;;;47.25;40.00;;;;;3.77;67.70;103277.53;5133567;27;49854;-69
2022/01/26 03:47:54;;;;;;;;;52.00;41.00;;;;;3.90;67.99;103300.28;5133373;27;49679;-68
2022/01/26 03:50:21;;;;;;;;;44.25;41.25;;;;;3.68;68.49;103251.66;5114858;27;49925;-68
2022/01/26 03:52:46;;;;;;;;;39.25;34.75;;;;;3.87;67.64;103287.94;5133531;27;50007;-68
2022/01/26 03:55:11;;;;;;;;;49.00;35.75;;;;;3.91;67.78;103294.31;5133762;27;49904;-68
2022/01/26 03:57:37;;;;;;;;;45.75;40.50;;;;;3.79;68.34;103272.47;5132916;27;50536;-67
2022/01/26 04:00:06;;;;;;;;;46.00;38.50;;;;;3.91;68.30;103303.03;5133068;27;49833;-67
2022/01/26 04:02:32;;;;;;;;;51.25;42.00;;;;;3.93;68.57;103287.56;5133588;27;49711;-67
2022/01/26 04:05:01;;;;;;;;;44.75;38.75;;;;;4.05;69.35;103298.13;5133427;27;49893;-68
2022/01/26 04:07:26;;;;;;;;;39.75;37.50;;;;;3.99;68.47;103281.22;5114387;27;51469;-68
2022/01/26 04:09:52;;;;;;;;;55.00;44.50;;;;;3.89;68.96;103267.28;5132027;27;49834;-68
2022/01/26 04:12:17;;;;;;;;;58.25;43.00;;;;;3.91;69.10;103257.94;5133121;27;49772;-70
2022/01/26 04:14:48;;;;;;;;;39.75;37.25;;;;;4.06;68.43;103286.97;5133119;27;49819;-70
2022/01/26 04:17:13;;;;;;;;;49.75;38.75;;;;;3.99;68.07;103278.63;5133082;27;49939;-68
2022/01/26 04:19:40;;;;;;;;;54.00;44.50;;;;;4.02;68.62;103276.28;5133019;27;49887;-68
2022/01/26 04:22:20;;;;;;;;;45.50;38.75;;;;;3.97;69.04;103256.78;5133282;27;49987;-69
2022/01/26 04:24:50;;;;;;;;;41.50;35.75;;;;;4.08;67.82;103280.22;5133135;27;50050;-68
2022/01/26 04:30:10;;;;;;;;;55.00;46.00;;;;;4.02;68.48;103260.69;5114198;27;49959;-67
2022/01/26 04:32:35;;;;;;;;;44.25;37.00;;;;;4.12;68.39;103271.88;5132723;27;49772;-68
2022/01/26 04:35:01;;;;;;;;;51.50;43.50;;;;;4.04;67.79;103271.22;5100556;27;49754;-68
2022/01/26 04:40:04;;;;;;;;;49.75;40.25;;;;;4.11;69.12;103276.19;5132774;27;49584;-68
2022/01/26 04:42:52;;;;;;;;;59.00;44.25;;;;;4.04;68.79;103258.22;5132703;27;49752;-68
2022/01/26 04:45:18;;;;;;;;;59.00;46.75;;;;;4.03;68.93;103243.41;5132352;27;49826;-69
2022/01/26 04:47:43;;;;;;;;;41.25;39.75;;;;;4.29;68.19;103292.47;5132399;27;49927;-68
2022/01/26 04:50:11;;;;;;;;;55.75;42.50;;;;;4.29;68.15;103288.16;5132629;27;49673;-68
2022/01/26 04:52:37;;;;;;;;;46.50;40.00;;;;;4.24;67.90;103289.44;5132776;27;49835;-67
2022/01/26 04:55:03;;;;;;;;;52.50;43.75;;;;;4.28;68.38;103296.75;5132660;27;49616;-71
2022/01/26 04:57:28;;;;;;;;;63.50;48.50;;;;;4.06;68.08;103267.09;5132040;27;50787;-68
2022/01/26 04:59:54;;;;;;;;;63.50;49.00;;;;;3.79;67.28;103224.00;5122662;27;49750;-68
2022/01/26 05:02:19;;;;;;;;;54.00;45.75;;;;;4.13;67.88;103289.31;5112603;27;49871;-68
2022/01/26 05:04:44;;;;;;;;;58.50;47.00;;;;;4.07;68.09;103278.38;5112489;27;49929;-68
2022/01/26 05:07:10;;;;;;;;;63.50;48.50;;;;;4.14;68.36;103280.72;5112229;27;51102;-67
2022/01/26 05:09:36;;;;;;;;;59.25;45.50;;;;;4.13;68.17;103271.09;5112287;27;49884;-68
2022/01/26 05:12:02;;;;;;;;;62.50;43.00;;;;;4.20;68.73;103276.06;5112506;27;49824;-73
2022/01/26 05:14:28;;;;;;;;;61.75;45.50;;;;;4.19;68.05;103282.03;5112151;27;49918;-68
2022/01/26 05:16:53;;;;;;;;;69.00;49.25;;;;;4.20;68.29;103295.16;5112255;27;50491;-71
2022/01/26 05:19:18;;;;;;;;;60.50;46.50;;;;;3.87;68.07;103240.28;5112339;27;49685;-69
2022/01/26 05:21:44;;;;;;;;;57.00;45.00;;;;;4.09;68.36;103269.03;5111816;27;49655;-69
2022/01/26 05:24:10;;;;;;;;;62.25;45.00;;;;;4.05;68.65;103256.53;5112460;27;49749;-68
2022/01/26 05:26:38;;;;;;;;;53.00;44.25;;;;;3.82;67.88;103221.66;5111878;27;49741;-68
2022/01/26 05:29:03;;;;;;;;;58.25;48.50;;;;;3.99;68.58;103238.72;5111787;27;49729;-69
2022/01/26 05:31:29;;;;;;;;;55.25;45.25;;;;;4.14;67.98;103262.53;5112200;27;49752;-68
2022/01/26 05:33:54;;;;;;;;;67.25;51.75;;;;;4.24;67.87;103260.84;5112132;27;50268;-71
2022/01/26 05:36:20;;;;;;;;;64.25;47.50;;;;;4.11;67.82;103236.28;5108546;27;51447;-68
2022/01/26 05:38:45;;;;;;;;;63.50;50.75;;;;;4.25;68.24;103256.59;5111993;27;49706;-69
2022/01/26 05:41:11;;;;;;;;;61.75;48.25;;;;;4.24;67.52;103254.72;5112068;27;49553;-68
2022/01/26 05:43:37;;;;;;;;;66.50;51.50;;;;;4.20;67.96;103247.47;5111786;27;49784;-68
2022/01/26 05:46:08;;;;;;;;;66.25;50.50;;;;;4.31;67.51;103263.19;5111667;27;50997;-70
2022/01/26 05:48:35;;;;;;;;;66.75;50.00;;;;;4.18;67.92;103230.81;5093398;27;49734;-68
2022/01/26 05:51:08;;;;;;;;;67.75;51.75;;;;;4.28;67.79;103251.63;5111886;27;49614;-67
2022/01/26 05:53:35;;;;;;;;;66.75;53.75;;;;;4.19;66.25;103236.16;5111954;27;49761;-68
2022/01/26 05:56:01;;;;;;;;;62.25;50.25;;;;;4.08;67.65;103220.41;5107316;27;52655;-68
2022/01/26 05:58:27;;;;;;;;;57.25;46.75;;;;;4.40;67.15;103273.47;5107392;27;49789;-68
2022/01/26 06:00:53;;;;;;;;;55.50;46.75;;;;;4.38;67.05;103277.66;5129007;27;49653;-69
2022/01/26 06:03:18;;;;;;;;;67.75;55.00;;;;;4.36;66.97;103284.41;5131771;27;49658;-68
2022/01/26 06:05:43;;;;;;;;;65.50;50.75;;;;;4.21;66.78;103252.78;5131189;27;49936;-69
2022/01/26 06:08:09;;;;;;;;;61.25;45.25;;;;;4.20;67.21;103240.56;5131395;27;49847;-69
2022/01/26 06:10:34;;;;;;;;;66.50;53.25;;;;;4.20;66.02;103258.78;5131524;27;50677;-68
2022/01/26 06:13:00;;;;;;;;;68.75;51.50;;;;;3.98;65.76;103236.91;5099645;27;50241;-70
2022/01/26 06:15:26;;;;;;;;;70.75;54.25;;;;;4.29;66.83;103292.47;5130945;27;50340;-68
2022/01/26 06:17:51;;;;;;;;;60.50;47.75;;;;;4.24;67.52;103278.13;5131406;27;49679;-68
2022/01/26 06:20:17;;;;;;;;;73.75;52.25;;;;;4.31;66.24;103289.19;5131394;27;49686;-68
2022/01/26 06:22:42;;;;;;;;;64.75;52.25;;;;;4.26;66.56;103271.41;5131530;27;49833;-70
2022/01/26 06:25:08;;;;;;;;;71.75;54.50;;;;;4.28;66.72;103291.56;5131077;27;49829;-69
2022/01/26 06:27:36;;;;;;;;;64.25;53.75;;;;;4.39;67.60;103310.69;5131039;27;49840;-69
2022/01/26 06:30:04;;;;;;;;;73.00;54.75;;;;;4.34;66.41;103296.34;5131037;27;49811;-67
2022/01/26 06:32:30;;;;;;;;;71.75;55.25;;;;;4.32;66.06;103310.91;5130930;27;49998;-68
2022/01/26 06:34:56;;;;;;;;;70.25;51.50;;;;;4.36;66.31;103310.44;5134362;27;50400;-69
2022/01/26 06:37:22;;;;;;;;;67.00;53.50;;;;;4.37;66.60;103312.25;5128281;27;49662;-68
2022/01/26 06:39:47;;;;;;;;;74.50;54.75;;;;;4.35;66.37;103315.50;5134830;27;49661;-68
2022/01/26 06:42:15;;;;;;;;;71.00;55.75;;;;;4.28;66.37;103311.44;5134851;27;50158;-67
2022/01/26 06:44:52;;;;;;;;;65.25;49.25;;;;;4.17;66.82;103315.72;5133956;27;49792;-67
2022/01/26 06:47:46;;;;;;;;;65.50;53.00;;;;;4.29;66.12;103344.47;5134508;27;49761;-68
2022/01/26 06:50:05;;;;;;;;;68.00;54.25;;;;;4.35;66.33;103352.81;5133877;27;50386;-66
2022/01/26 06:52:30;;;;;;;;;74.25;54.25;;;;;4.13;66.61;103316.22;5134572;27;49757;-67
2022/01/26 06:54:56;;;;;;;;;73.25;54.25;;;;;4.29;66.29;103336.66;5134342;27;51200;-67
2022/01/26 06:57:21;;;;;;;;;73.00;56.00;;;;;4.28;65.90;103334.84;5135786;27;49842;-64
2022/01/26 06:59:46;;;;;;;;;76.50;55.50;;;;;4.18;65.98;103324.44;5135135;27;49651;-66
2022/01/26 07:02:12;;;;;;;;;71.50;56.00;;;;;4.29;65.71;103355.78;5136587;27;49976;-71
2022/01/26 07:04:37;;;;;;;;;70.25;54.75;;;;;3.97;66.46;103303.56;5133831;27;51256;-65
2022/01/26 07:07:03;;;;;;;;;72.00;58.00;;;;;4.11;65.53;103327.25;5136752;27;49990;-66
2022/01/26 07:09:28;;;;;;;;;73.75;51.75;;;;;3.99;66.23;103321.91;5134181;27;49858;-72
2022/01/26 07:11:53;;;;;;;;;71.00;56.75;;;;;4.09;66.92;103321.03;5135673;27;49997;-68
2022/01/26 07:19:52;;;;;;;;;70.00;54.00;;;;;4.13;65.74;103298.00;5133974;27;49627;-67
2022/01/26 07:22:18;;;;;;;;;65.25;53.00;;;;;3.95;65.94;103266.13;5141732;27;49881;-74
2022/01/26 07:24:43;;;;;;;;;65.50;51.00;;;;;4.33;66.71;103323.13;5097697;27;52924;-73
2022/01/26 07:27:10;;;;;;;;;60.25;48.25;;;;;4.41;65.59;103336.81;5130175;27;49928;-72
2022/01/26 07:29:36;;;;;;;;;72.00;53.50;;;;;4.27;66.16;103322.63;5133695;27;49663;-73
2022/01/26 07:32:04;;;;;;;;;70.25;53.00;;;;;3.81;65.69;103248.44;5134052;27;49808;-73
2022/01/26 07:34:29;;;;;;;;;71.25;56.00;;;;;4.00;66.39;103277.84;5133595;27;51439;-73
2022/01/26 07:37:00;;;;;;;;;69.25;56.25;;;;;4.23;66.00;103320.53;5115118;27;49884;-73
2022/01/26 07:39:40;;;;;;;;;73.25;54.75;;;;;4.26;66.50;103316.50;5134018;27;49770;-72
2022/01/26 07:42:06;;;;;;;;;67.00;52.75;;;;;4.16;65.72;103292.19;5133759;27;49823;-72
2022/01/26 07:44:31;;;;;;;;;62.50;48.50;;;;;4.35;66.30;103326.81;5132829;27;49979;-73
2022/01/26 07:46:56;;;;;;;;;66.00;51.25;;;;;4.11;65.61;103286.56;5133685;27;50172;-72
2022/01/26 07:49:22;;;;;;;;;69.50;53.50;;;;;4.27;65.29;103323.53;5133505;27;49980;-73
2022/01/26 07:51:49;;;;;;;;;72.75;55.25;;;;;4.36;65.64;103336.44;5133715;27;49785;-73
2022/01/26 07:54:16;;;;;;;;;57.75;47.25;;;;;4.38;65.54;103345.28;5133611;27;50020;-73
2022/01/26 07:56:43;;;;;;;;;69.50;53.25;;;;;3.89;66.04;103252.59;5133310;27;49957;-73
2022/01/26 07:59:08;;;;;;;;;67.50;53.50;;;;;4.48;66.39;103353.09;5133193;27;49758;-73
2022/01/26 08:01:35;;;;;;;;;73.25;56.25;;;;;4.43;66.44;103330.94;5133553;27;49754;-73
2022/01/26 08:04:01;;;;;;;;;77.75;58.00;;;;;4.43;66.54;103306.63;5101623;27;52815;-73
2022/01/26 08:06:26;;;;;;;;;67.75;55.00;;;;;4.63;66.34;103311.84;5112334;27;49836;-75
2022/01/26 08:08:51;;;;;;;;;68.25;53.00;;;;;4.26;66.06;103246.31;5114056;27;50099;-71
2022/01/26 08:11:17;;;;;;;;;70.00;54.50;;;;;4.40;65.87;103269.97;5118296;27;49845;-72
2022/01/26 08:13:42;;;;;;;;;66.50;50.50;;;;;4.41;65.57;103277.91;5114637;27;50516;-74
2022/01/26 08:16:08;;;;;;;;;66.50;50.75;;;;;4.31;65.28;103257.09;5133117;27;49604;-69
2022/01/26 08:18:33;;;;;;;;;76.25;54.50;;;;;4.80;65.06;103318.50;5133184;27;49615;-69
2022/01/26 08:21:04;;;;;;;;;73.25;56.00;;;;;4.19;65.24;103201.44;5133247;27;49938;-66
2022/01/26 08:23:29;;;;;;;;;68.00;52.00;;;;;4.59;65.30;103276.88;5132807;27;50458;-67
2022/01/26 08:25:55;;;;;;;;;67.00;50.75;;;;;4.78;65.51;103299.25;5132733;27;50146;-68
2022/01/26 08:28:26;;;;;;;;;67.75;54.50;;;;;4.34;65.15;103272.94;5133163;27;49791;-66
2022/01/26 08:30:52;;;;;;;;;72.25;52.00;;;;;5.04;64.98;103336.19;5114218;27;49996;-61
2022/01/26 08:33:17;;;;;;;;;77.25;55.75;;;;;4.84;64.98;103282.47;5132751;27;49900;-62
2022/01/26 08:35:42;;;;;;;;;66.50;53.50;;;;;5.07;64.77;103314.72;5133012;27;50072;-62
2022/01/26 08:38:08;;;;;;;;;68.50;51.75;;;;;5.03;65.05;103312.66;5132855;27;50365;-62
2022/01/26 08:40:34;;;;;;;;;58.75;45.00;;;;;4.98;64.23;103306.13;5132901;27;50482;-62
2022/01/26 08:43:00;;;;;;;;;62.50;51.50;;;;;4.92;65.00;103290.91;5132483;27;50420;-62
2022/01/26 08:45:26;;;;;;;;;72.50;55.75;;;;;5.03;64.84;103304.84;5127039;27;49823;-63
2022/01/26 08:47:52;;;;;;;;;66.75;54.00;;;;;5.19;64.23;103339.16;5112784;27;50152;-62
2022/01/26 08:50:18;;;;;;;;;59.75;51.00;;;;;4.79;64.14;103278.56;5113043;27;49596;-62
2022/01/26 08:52:43;;;;;;;;;68.75;54.25;;;;;5.17;64.69;103341.63;5112586;27;49919;-62
2022/01/26 08:55:10;;;;;;;;;69.00;55.50;;;;;5.26;64.88;103361.44;5112704;27;49878;-62
2022/01/26 08:57:35;;;;;;;;;205.75;168.50;;;;;5.07;64.88;103315.63;5111810;27;49844;-62
2022/01/26 09:00:01;;;;;;;;;103.00;92.67;;;;;5.26;64.58;103338.91;5112769;27;50175;-62
2022/01/26 09:02:27;;;;;;;;;84.33;65.33;;;;;5.26;64.81;103338.00;5107566;27;51659;-62
2022/01/26 09:04:53;;;;;;;;;64.75;53.50;;;;;5.37;64.23;103355.41;5112412;27;49714;-63
2022/01/26 09:07:20;;;;;;;;;61.75;51.25;;;;;5.28;64.81;103333.81;5112617;27;49860;-62
2022/01/26 09:09:46;;;;;;;;;70.75;53.00;;;;;5.41;64.39;103368.84;5112509;27;49577;-62
2022/01/26 09:12:16;;;;;;;;;56.00;42.00;;;;;5.29;63.60;103359.97;5112112;27;50501;-62
2022/01/26 09:14:42;;;;;;;;;65.50;50.75;;;;;5.26;63.80;103372.75;5112398;27;49668;-62
2022/01/26 09:17:10;;;;;;;;;51.75;43.75;;;;;5.16;63.70;103359.75;5111991;27;50004;-62
2022/01/26 09:19:35;;;;;;;;;62.75;49.50;;;;;5.25;64.27;103372.63;5112419;27;49877;-62
2022/01/26 09:22:03;;;;;;;;;62.50;48.50;;;;;5.33;64.32;103371.59;5112136;27;49817;-63
2022/01/26 09:24:31;;;;;;;;;65.50;52.00;;;;;5.28;64.29;103352.94;5112205;27;49882;-63
2022/01/26 09:26:57;;;;;;;;;61.75;50.00;;;;;5.41;63.07;103373.13;5112349;27;49800;-62
2022/01/26 09:29:23;;;;;;;;;77.75;58.25;;;;;5.29;64.38;103369.50;5111863;27;49873;-62
2022/01/26 09:31:49;;;;;;;;;58.50;47.00;;;;;5.41;63.92;103375.75;5111973;27;50029;-63
2022/01/26 09:34:19;;;;;;;;;70.75;54.50;;;;;5.53;64.48;103388.88;5111972;27;49907;-63
2022/01/26 09:36:45;;;;;;;;;70.25;54.25;;;;;5.59;64.58;103379.84;5111838;27;49776;-62
2022/01/26 09:39:12;;;;;;;;;62.50;50.00;;;;;5.30;63.73;103314.91;5111801;27;50021;-62
2022/01/26 09:41:40;;;;;;;;;69.25;52.50;;;;;5.64;64.03;103383.75;5111847;27;51136;-62
2022/01/26 09:44:06;;;;;;;;;61.25;47.50;;;;;5.47;63.89;103361.50;5109776;27;49576;-62
2022/01/26 09:46:31;;;;;;;;;69.00;52.75;;;;;5.62;64.16;103377.50;5111728;27;49793;-62
2022/01/26 09:48:57;;;;;;;;;61.50;49.50;;;;;5.59;63.44;103377.25;5111748;27;50032;-62
2022/01/26 09:51:23;;;;;;;;;58.00;48.50;;;;;5.68;63.93;103393.63;5111300;27;50527;-62
2022/01/26 09:54:06;;;;;;;;;65.50;52.25;;;;;5.71;63.94;103393.91;5111278;27;49765;-63
2022/01/26 09:56:31;;;;;;;;;68.50;55.00;;;;;5.85;64.15;103407.16;5111583;27;49908;-64
2022/01/26 09:58:57;;;;;;;;;66.25;51.25;;;;;5.90;64.69;103413.66;5111490;27;50041;-63
2022/01/26 10:01:24;;;;;;;;;74.50;57.50;;;;;5.91;63.65;103415.53;5111452;27;50555;-63
2022/01/26 10:03:51;;;;;;;;;61.00;47.00;;;;;5.81;63.29;103399.88;5111258;27;49808;-62
2022/01/26 10:06:28;;;;;;;;;64.25;47.75;;;;;5.86;63.10;103407.28;5111575;27;50051;-63
2022/01/26 10:09:24;;;;;;;;;71.00;50.75;;;;;5.72;63.52;103376.56;5113252;27;49932;-63
2022/01/26 10:17:28;;;;;;;;;66.25;51.50;;;;;5.79;63.14;103397.16;5115382;27;49916;-63
2022/01/26 10:19:59;;;;;;;;;59.75;50.00;;;;;5.74;63.13;103386.34;5114761;27;49959;-63
2022/01/26 10:22:30;;;;;;;;;63.00;50.00;;;;;5.87;63.06;103408.19;5096216;27;51444;-64
2022/01/26 10:25:07;;;;;;;;;67.75;52.75;;;;;5.83;63.14;103393.09;5114963;27;49947;-64
2022/01/26 10:27:49;;;;;;;;;64.75;51.75;;;;;5.86;62.84;103399.44;5115014;27;50104;-63
2022/01/26 10:30:17;;;;;;;;;66.25;53.00;;;;;5.89;62.68;103386.69;5115118;27;49690;-64
2022/01/26 10:32:45;;;;;;;;;65.50;51.00;;;;;5.90;63.83;103371.97;5114702;27;50600;-63
2022/01/26 10:35:11;;;;;;;;;71.75;56.00;;;;;5.55;64.18;103301.31;5114699;27;49928;-62
2022/01/26 10:37:40;;;;;;;;;69.50;54.75;;;;;5.97;63.00;103377.81;5114982;27;49971;-62
2022/01/26 10:40:26;;;;;;;;;69.50;52.50;;;;;5.94;62.96;103402.72;5114937;27;49884;-63
2022/01/26 10:43:03;;;;;;;;;68.50;55.50;;;;;5.91;63.04;103395.56;5113999;27;50635;-62
2022/01/26 10:53:49;;;;;;;;;69.25;54.25;;;;;6.27;63.55;103383.66;5134047;27;49684;-63
2022/01/26 10:56:16;;;;;;;;;73.75;56.00;;;;;6.26;63.66;103363.59;5134252;27;49968;-64
2022/01/26 10:58:41;;;;;;;;;76.50;57.50;;;;;6.21;63.22;103347.56;5134171;27;49840;-64
2022/01/26 11:01:07;;;;;;;;;74.50;56.75;;;;;6.36;63.14;103371.34;5134492;27;49720;-63
2022/01/26 11:03:33;;;;;;;;;56.75;46.25;;;;;6.40;63.10;103368.22;5134017;27;50406;-64
2022/01/26 11:06:00;;;;;;;;;70.50;55.00;;;;;6.38;63.07;103361.06;5127020;27;49759;-64
2022/01/26 11:08:27;;;;;;;;;70.75;55.75;;;;;6.44;63.30;103362.44;5114265;27;49640;-64
2022/01/26 11:10:53;;;;;;;;;69.25;53.50;;;;;6.41;63.27;103346.53;5114450;27;49780;-64
2022/01/26 11:13:30;;;;;;;;;62.50;49.50;;;;;6.44;62.82;103349.38;5115612;27;50871;-63
2022/01/26 11:16:10;;;;;;;;;71.00;54.50;;;;;6.62;62.95;103373.41;5113970;27;49783;-63
2022/01/26 11:18:53;;;;;;;;;66.75;51.25;;;;;6.60;62.98;103346.28;5128044;27;49754;-63
2022/01/26 11:21:34;;;;;;;;;70.25;57.25;;;;;6.72;62.84;103359.38;5134103;27;50198;-63
2022/01/26 11:24:08;;;;;;;;;68.50;55.25;;;;;6.76;62.41;103341.47;5133860;27;49916;-63
2022/01/26 11:26:34;;;;;;;;;62.50;51.75;;;;;6.47;62.39;103296.56;5127936;27;49794;-63
2022/01/26 11:29:00;;;;;;;;;65.00;51.75;;;;;6.82;61.93;103354.06;5098659;27;49742;-64
2022/01/26 11:31:26;;;;;;;;;70.50;54.50;;;;;6.74;62.16;103334.28;5115270;27;50098;-63
2022/01/26 11:33:51;;;;;;;;;64.50;49.00;;;;;6.74;62.83;103321.25;5113524;27;50569;-65
2022/01/26 11:36:18;;;;;;;;;67.25;53.00;;;;;6.84;62.52;103329.88;5118584;27;49626;-66
2022/01/26 11:42:10;;;;;;;;;64.25;49.00;;;;;6.60;61.98;103288.88;5133585;27;49563;-69
2022/01/26 11:47:18;;;;;;;;;64.25;51.75;;;;;6.89;62.09;103325.03;5104641;27;49707;-66
2022/01/26 11:49:44;;;;;;;;;62.25;49.25;;;;;6.78;62.71;103290.28;5133627;27;49799;-66
2022/01/26 11:52:21;;;;;;;;;68.25;54.50;;;;;6.78;62.48;103286.75;5133694;27;49999;-68
2022/01/26 11:54:52;;;;;;;;;69.50;50.50;;;;;6.99;61.61;103318.81;5133402;27;50899;-68
2022/01/26 11:57:19;;;;;;;;;67.50;52.75;;;;;6.93;62.56;103300.97;5118199;27;50114;-68
2022/01/26 11:59:58;;;;;;;;;72.00;56.00;;;;;6.84;62.26;103266.31;5113386;27;49607;-66
2022/01/26 12:02:50;;;;;;;;;66.25;51.50;;;;;7.03;61.83;103286.91;5113487;27;49881;-66
2022/01/26 12:05:20;;;;;;;;;70.75;54.00;;;;;7.07;61.93;103292.47;5126630;27;50738;-66
2022/01/26 12:08:00;;;;;;;;;59.50;49.00;;;;;6.88;60.91;103243.19;5127271;27;49681;-71
2022/01/26 12:10:30;;;;;;;;;72.50;57.50;;;;;7.09;61.54;103284.75;5133293;27;50363;-68
2022/01/26 12:13:06;;;;;;;;;64.50;52.75;;;;;7.12;61.69;103291.09;5133152;27;50063;-69
2022/01/26 12:15:43;;;;;;;;;63.25;51.00;;;;;7.14;62.05;103302.59;5132854;27;49712;-73
2022/01/26 12:18:28;;;;;;;;;68.25;50.25;;;;;6.85;62.15;103263.84;5096213;27;49710;-74
2022/01/26 12:38:25;;;;;;;;;71.00;55.25;;;;;7.04;61.46;103273.94;5127266;27;49752;-69
2022/01/26 12:43:42;;;;;;;;;73.50;54.75;;;;;7.09;60.93;103298.72;5132421;27;49728;-69
2022/01/26 12:46:12;;;;;;;;;73.75;56.75;;;;;6.75;61.10;103242.13;5113912;27;49939;-69
2022/01/26 12:48:40;;;;;;;;;71.75;55.50;;;;;6.70;61.29;103243.50;5132277;27;50016;-69
2022/01/26 12:51:07;;;;;;;;;73.50;56.25;;;;;6.71;61.46;103243.59;5132605;27;50075;-69
2022/01/26 12:53:38;;;;;;;;;76.00;56.75;;;;;7.10;61.75;103307.47;5132489;27;49705;-69
2022/01/26 12:56:10;;;;;;;;;72.25;56.25;;;;;7.13;62.14;103292.94;5132303;27;49761;-69
2022/01/26 12:58:38;;;;;;;;;68.00;53.25;;;;;7.10;61.79;103287.47;5131825;27;49816;-70
2022/01/26 13:01:08;;;;;;;;;69.50;54.50;;;;;7.20;61.77;103286.47;5132388;27;49997;-70
2022/01/26 13:03:35;;;;;;;;;66.00;51.75;;;;;7.00;61.26;103268.41;5124137;27;50029;-69
2022/01/26 13:06:09;;;;;;;;;72.00;55.50;;;;;6.81;61.13;103227.84;5110766;27;49850;-70
2022/01/26 13:08:48;;;;;;;;;65.50;51.75;;;;;7.17;61.84;103283.63;5112216;27;51061;-71
2022/01/26 13:11:31;;;;;;;;;68.25;53.00;;;;;7.04;61.35;103271.34;5107350;27;49798;-70
2022/01/26 13:14:17;;;;;;;;;72.00;55.75;;;;;7.17;61.46;103287.16;5108721;27;49873;-70
2022/01/26 13:16:57;;;;;;;;;78.25;59.00;;;;;7.18;61.69;103275.91;5118191;27;50526;-70
2022/01/26 13:27:56;;;;;;;;;69.00;56.25;;;;;6.91;62.59;103221.59;5111530;27;49737;-70
2022/01/26 13:33:11;;;;;;;;;68.75;55.50;;;;;7.20;61.67;103278.63;5111915;27;49830;-70
2022/01/26 13:35:44;;;;;;;;;73.25;56.00;;;;;7.14;62.00;103271.25;5125921;27;49862;-70
2022/01/26 13:41:03;;;;;;;;;70.25;56.75;;;;;7.05;62.08;103262.75;5111644;27;49700;-70
2022/01/26 13:56:34;;;;;;;;;68.75;52.50;;;;;6.97;62.47;103263.88;5131456;27;49834;-69
2022/01/26 13:59:21;;;;;;;;;67.50;49.75;;;;;6.73;62.72;103215.91;5131387;27;49943;-71
2022/01/26 14:01:48;;;;;;;;;68.50;53.75;;;;;7.00;62.02;103256.25;5118374;27;50747;-71
2022/01/26 14:04:18;;;;;;;;;73.50;56.00;;;;;6.86;62.15;103234.34;5111528;27;49804;-70
2022/01/26 14:06:44;;;;;;;;;71.00;55.75;;;;;6.94;62.35;103249.66;5124890;27;49760;-70
2022/01/26 14:09:10;;;;;;;;;66.00;51.50;;;;;6.97;62.29;103257.72;5131606;27;49646;-73